This is the latest recevied weather packets stored in our database for station/object N2RDT. If no packets are shown the sender has not sent any weather packets the latest 1 day(s).
| Time | Temp. | Humidity | Pressure | Rain* | Wind** | Luminosity | Snow |
|---|---|---|---|---|---|---|---|
| 1778010274 | 26.11° C | 41% | 1015.4 hPa | 0 mm | 3.13 m/s, 107° | 742 W/m² | - |
| 1778009974 | 26.11° C | 39% | 1015.4 hPa | 0 mm | 3.13 m/s, 144° | 371 W/m² | - |
| 1778009672 | 26.67° C | 39% | 1015.2 hPa | 0 mm | 1.79 m/s, 138° | 354 W/m² | - |
| 1778009369 | 26.67° C | 38% | 1015.5 hPa | 0 mm | 2.68 m/s, 156° | 889 W/m² | - |
| 1778009062 | 26.67° C | 41% | 1015.4 hPa | 0 mm | 1.79 m/s, 124° | 855 W/m² | - |
| 1778008759 | 25.56° C | 41% | 1015.7 hPa | 0 mm | 3.58 m/s, 69° | 677 W/m² | - |
| 1778008458 | 26.11° C | 41% | 1015.6 hPa | 0 mm | 2.68 m/s, 137° | 477 W/m² | - |
| 1778008154 | 26.67° C | 39% | 1015.8 hPa | 0 mm | 4.47 m/s, 84° | 544 W/m² | - |
| 1778007849 | 26.67° C | 39% | 1016 hPa | 0 mm | 3.58 m/s, 124° | 842 W/m² | - |
| 1778007545 | 26.67° C | 40% | 1015.9 hPa | 0 mm | 1.79 m/s, 109° | 827 W/m² | - |
| 1778007242 | 26.11° C | 41% | 1016 hPa | 0 mm | 0.89 m/s, 122° | 731 W/m² | - |
| 1778006939 | 26.11° C | 37% | 1016.1 hPa | 0 mm | 3.58 m/s, 136° | 665 W/m² | - |
| 1778006636 | 26.67° C | 38% | 1016.2 hPa | 0 mm | 3.58 m/s, 108° | 873 W/m² | - |
| 1778006332 | 26.67° C | 38% | 1016.4 hPa | 0 mm | 3.58 m/s, 108° | 873 W/m² | - |
| 1778006029 | 26.67° C | 38% | 1016.3 hPa | 0 mm | 3.58 m/s, 108° | 873 W/m² | - |
| 1778005725 | 26.67° C | 38% | 1016.5 hPa | 0 mm | 2.24 m/s, 94° | 910 W/m² | - |
| 1778005422 | 26.11° C | 40% | 1016.3 hPa | 0 mm | 3.13 m/s, 140° | 796 W/m² | - |
| 1778005119 | 26.11° C | 40% | 1016.4 hPa | 0 mm | 3.13 m/s, 140° | 796 W/m² | - |
| 1778004816 | 26.11° C | 41% | 1016.6 hPa | 0 mm | 2.68 m/s, 115° | 854 W/m² | - |
| 1778004513 | 26.11° C | 41% | 1016.6 hPa | 0 mm | 4.02 m/s, 144° | 946 W/m² | - |
| 1778004209 | 26.11° C | 41% | 1016.6 hPa | 0 mm | 4.02 m/s, 144° | 946 W/m² | - |
| 1778003906 | 26.11° C | 41% | 1016.7 hPa | 0 mm | 4.02 m/s, 144° | 946 W/m² | - |
| 1778003602 | 26.11° C | 41% | 1016.6 hPa | 0 mm | 2.24 m/s, 115° | 882 W/m² | - |
| 1778003299 | 25.56° C | 43% | 1016.6 hPa | 0 mm | 1.34 m/s, 96° | 941 W/m² | - |
| 1778002997 | 26.11° C | 39% | 1016.6 hPa | 0 mm | 2.68 m/s, 140° | 935 W/m² | - |
* Rain latest hour (hover to see other rain measurements)
** Current wind speed in m/s (hover to see current wind gust speed)